Centennial Airport
KAPA : now visible

Airfield :











YOU CAN JOIN US ON...

 
LOGIN :

Register | Disclaimer

   EN    FR    IT 

 









Legend :    VFR   Marginal VFR   IFR   Intensive IFR   Very Intensive IFR
Visi :
Ceiling :
>= 8 km
>= 3000ft
5 to 8 km
1000 to 3000 ft
1500m to 5 km
500 to 1000 ft
800 to 1500m
200 to 500 ft
< 800m
< 200 ft
Symbols :   Thunderstorms  Fog  Heavy snow  Heavy precipitations  Wind > 20 kt






- Airport Elevation : 5885 ft


KAPA - Centennial

CURRENT METAR :
  • 181253Z 16008KT 10SM FEW140 BKN220 13/04 A3015 RMK AO2 SLP153 T01330039

EXPIRED METARs :
  • 181153Z 18009KT 10SM FEW140 BKN220 11/03 A3015 RMK AO2 SLP155 T01110033 10150 20106 51012
  • 181053Z 18006KT 10SM FEW140 SCT220 11/03 A3014 RMK AO2 SLP151 T01110028

TAF KAPA
Valid from the 18 at 12:00 until the 19 at 12:00 UTC


181122Z 1812/1912 17007KT P6SM FEW140 SCT220
FM181700 36008KT P6SM FEW080 SCT120 BKN220
FM182300 15011KT P6SM FEW110 SCT160 BKN220
FM190400 18008KT P6SM FEW160 SCT220
KZDV FIR / North America



MET'MAP, your aeronautical weather chart ! - Copyright ORBIFLY December 2007 - Disclaimer

ORBIFLY MET'MAP TEAM :

Programming & Development : Alexandra Zaïnal
Original concept : Baudouin d'Aumeries
Technical & hardware support : Manuel Goepfert
Assistance : Marc-Olivier Méhu

Contact : metmap@orbifly.com




SOURCES & CREDITS :

   NOAA       Earth
Advisory